Time;durP1;ratioP1;P1;durP2;ratioP2;P2;SDS_P1;SDS_P2;PMS_P1;PMS_P2;Temp;Humidity;BMP_temperature;BMP_pressure;BME280_temperature;BME280_humidity;BME280_pressure;Samples;Min_cycle;Max_cycle;Signal;HPM_P1;HPM_P2
2021/11/20 00:00:09;;;;;;;1999.90;999.90;;;;;;;13.99;72.23;101954.09;15644897;28;20481;-64
2021/11/20 00:07:46;;;;;;;1999.90;999.90;;;;;;;14.19;71.48;101953.47;15644121;28;20499;-64
2021/11/20 00:15:24;;;;;;;1999.90;999.90;;;;;;;14.20;71.64;101974.78;15635465;28;20053;-63
2021/11/20 00:22:59;;;;;;;1999.90;999.90;;;;;;;14.29;71.47;101970.00;15659517;28;20049;-64
2021/11/20 00:30:51;;;;;;;1999.90;999.90;;;;;;;13.90;73.04;101965.28;15660194;28;20083;-61
2021/11/20 00:38:25;;;;;;;1999.90;999.90;;;;;;;14.32;71.57;101965.72;15632496;28;20036;-64
2021/11/20 00:45:59;;;;;;;1999.90;999.90;;;;;;;14.03;72.46;101947.50;15647572;28;20111;-64
2021/11/20 00:53:32;;;;;;;1999.90;999.90;;;;;;;13.83;73.17;101957.34;15624633;28;20132;-63
2021/11/20 01:01:08;;;;;;;;;;;;;;;14.23;71.94;101959.25;15641312;28;20320;-64
2021/11/20 01:08:43;;;;;;;1999.90;999.90;;;;;;;14.09;72.64;101951.81;15660008;28;19935;-64
2021/11/20 01:16:21;;;;;;;1999.90;999.90;;;;;;;13.98;72.94;101944.84;15637072;28;20064;-64
2021/11/20 01:23:55;;;;;;;1999.90;999.90;;;;;;;13.85;73.18;101949.41;15628030;28;20041;-64
2021/11/20 01:31:31;;;;;;;1999.90;999.90;;;;;;;14.13;72.62;101963.19;15637219;28;20071;-63
2021/11/20 01:39:08;;;;;;;1999.90;999.90;;;;;;;14.03;72.68;101963.50;15639820;28;20037;-63
2021/11/20 01:46:50;;;;;;;1999.90;999.90;;;;;;;13.76;73.84;101951.41;15618633;28;20146;-63
2021/11/20 01:54:42;;;;;;;1999.90;999.90;;;;;;;13.93;73.43;101944.16;15670162;28;20132;-64
2021/11/20 02:02:34;;;;;;;1999.90;999.90;;;;;;;13.76;73.91;101944.97;15637361;28;20084;-63
2021/11/20 02:10:25;;;;;;;1999.90;999.90;;;;;;;13.74;73.84;101948.06;15656557;28;20044;-63
2021/11/20 02:18:03;;;;;;;1999.90;999.90;;;;;;;13.91;73.41;101935.25;15636229;28;20041;-63
2021/11/20 02:25:42;;;;;;;1999.90;999.90;;;;;;;13.89;73.37;101934.75;15651306;28;20064;-63
2021/11/20 02:33:38;;;;;;;;;;;;;;;14.10;72.82;101931.00;15650235;28;20385;-63
2021/11/20 02:41:15;;;;;;;1999.90;999.90;;;;;;;13.92;73.53;101920.88;15629843;28;20394;-63
2021/11/20 02:48:52;;;;;;;1999.90;999.90;;;;;;;14.23;72.48;101911.53;15614426;28;20046;-63
2021/11/20 02:56:28;;;;;;;1999.90;999.90;;;;;;;13.92;73.63;101915.28;15642481;28;20146;-63
2021/11/20 03:04:04;;;;;;;1999.90;999.90;;;;;;;13.84;74.11;101930.09;15638538;28;20095;-63
2021/11/20 03:11:38;;;;;;;1999.90;999.90;;;;;;;13.93;73.67;101924.53;15652800;28;20076;-63
2021/11/20 03:19:13;;;;;;;1999.90;999.90;;;;;;;13.96;73.80;101923.88;15643616;28;20042;-63
2021/11/20 03:26:46;;;;;;;1999.90;999.90;;;;;;;14.08;73.61;101915.66;15618339;28;20080;-64
2021/11/20 03:34:22;;;;;;;1999.90;999.90;;;;;;;13.80;74.92;101924.34;15657977;28;20056;-64
2021/11/20 03:41:56;;;;;;;1999.90;999.90;;;;;;;13.70;75.39;101913.41;15651355;28;20041;-63
2021/11/20 03:49:30;;;;;;;1999.90;999.90;;;;;;;13.80;75.80;101912.28;15648358;28;20080;-63
2021/11/20 03:57:04;;;;;;;1999.90;999.90;;;;;;;13.82;76.20;101915.59;15625624;28;20076;-63
2021/11/20 04:04:40;;;;;;;1999.90;999.90;;;;;;;13.69;76.90;101908.13;15633862;28;20136;-63
2021/11/20 04:12:13;;;;;;;1999.90;999.90;;;;;;;13.48;77.89;101903.09;15647381;28;20030;-62
2021/11/20 04:19:49;;;;;;;1999.90;999.90;;;;;;;13.65;77.48;101907.97;15637749;28;20049;-63
2021/11/20 04:27:22;;;;;;;1999.90;999.90;;;;;;;13.72;76.97;101913.91;15658651;28;20049;-62
2021/11/20 04:35:13;;;;;;;1999.90;999.90;;;;;;;13.40;78.21;101906.69;15649411;28;20034;-63
2021/11/20 04:42:46;;;;;;;1999.90;999.90;;;;;;;13.49;78.71;101904.75;15659690;28;20498;-64
2021/11/20 04:50:23;;;;;;;1999.90;999.90;;;;;;;13.44;79.70;101902.13;15659297;28;20096;-64
2021/11/20 04:57:58;;;;;;;1999.90;999.90;;;;;;;12.83;82.28;101888.91;15623948;28;20453;-64
2021/11/20 05:05:33;;;;;;;1999.90;999.90;;;;;;;13.00;82.04;101884.22;15654990;28;20366;-62
2021/11/20 05:13:07;;;;;;;1999.90;999.90;;;;;;;13.16;81.38;101881.84;15646040;28;20047;-63
2021/11/20 05:20:41;;;;;;;1999.90;999.90;;;;;;;13.07;81.39;101892.16;15634878;28;20049;-62
2021/11/20 05:28:17;;;;;;;1999.90;999.90;;;;;;;13.19;80.91;101903.63;15657262;28;20063;-62
2021/11/20 05:35:52;;;;;;;1999.90;999.90;;;;;;;13.23;80.78;101899.06;15657414;28;20041;-63
2021/11/20 05:43:26;;;;;;;1999.90;999.90;;;;;;;13.17;81.10;101886.28;15635517;28;20042;-63
2021/11/20 05:51:06;;;;;;;1999.90;999.90;;;;;;;13.05;81.65;101883.25;15645854;28;20043;-63
2021/11/20 05:58:39;;;;;;;1999.90;999.90;;;;;;;12.79;82.79;101880.31;15624589;28;20033;-62
2021/11/20 06:06:14;;;;;;;1999.90;999.90;;;;;;;12.85;82.45;101873.44;15628428;28;20402;-63
2021/11/20 06:13:48;;;;;;;1999.90;999.90;;;;;;;12.98;82.10;101883.72;15650120;28;20037;-63
2021/11/20 06:21:34;;;;;;;1999.90;999.90;;;;;;;12.93;82.43;101874.63;15639310;28;20061;-63
2021/11/20 06:29:09;;;;;;;1999.90;999.90;;;;;;;13.10;81.54;101876.69;15645325;28;20041;-63
2021/11/20 06:36:46;;;;;;;1999.90;999.90;;;;;;;13.23;81.25;101906.63;15643817;28;20098;-62
2021/11/20 06:44:30;;;;;;;1999.90;999.90;;;;;;;13.10;81.65;101911.13;15628894;28;20072;-61
2021/11/20 06:52:06;;;;;;;1999.90;999.90;;;;;;;12.81;83.40;101920.00;15634924;28;20053;-63
2021/11/20 07:08:24;;;;;;;1999.90;999.90;;;;;;;12.98;82.98;101913.72;15634700;28;19929;-63
2021/11/20 07:15:57;;;;;;;1999.90;999.90;;;;;;;12.78;83.58;101917.03;15672452;28;20550;-63
2021/11/20 07:23:34;;;;;;;1999.90;999.90;;;;;;;12.82;83.31;101913.28;15624919;28;20544;-63
2021/11/20 07:31:07;;;;;;;1999.90;999.90;;;;;;;12.72;83.15;101913.56;15646949;28;20042;-63
2021/11/20 07:38:49;;;;;;;1999.90;999.90;;;;;;;13.18;81.55;101906.72;15658031;28;20119;-62
2021/11/20 07:46:23;;;;;;;1999.90;999.90;;;;;;;13.08;81.67;101896.63;15673396;28;20424;-63
2021/11/20 07:54:00;;;;;;;1999.90;999.90;;;;;;;13.22;80.77;101897.38;15656465;28;20220;-63
2021/11/20 08:01:34;;;;;;;1999.90;999.90;;;;;;;13.14;80.55;101892.53;15673046;28;20033;-63
2021/11/20 08:09:11;;;;;;;1999.90;999.90;;;;;;;13.14;80.64;101872.94;15629191;28;20099;-64
2021/11/20 08:17:04;;;;;;;1999.90;999.90;;;;;;;13.21;79.67;101864.91;15620932;28;20088;-65
2021/11/20 08:25:08;;;;;;;1999.90;999.90;;;;;;;13.42;78.84;101869.91;15593870;28;20050;-66
2021/11/20 08:32:41;;;;;;;1999.90;999.90;;;;;;;13.13;79.18;101854.47;15620951;28;20095;-65
2021/11/20 08:40:26;;;;;;;1999.90;999.90;;;;;;;13.66;77.23;101847.09;15622944;28;20037;-64
2021/11/20 08:47:59;;;;;;;1999.90;999.90;;;;;;;13.40;77.93;101844.19;15618309;28;20056;-66
2021/11/20 08:55:38;;;;;;;1999.90;999.90;;;;;;;13.39;77.29;101839.75;15620046;28;20046;-65
2021/11/20 09:03:33;;;;;;;1999.90;999.90;;;;;;;13.97;75.29;101824.53;15598589;28;20049;-61
2021/11/20 09:11:15;;;;;;;1999.90;999.90;;;;;;;14.39;73.24;101808.81;15598180;28;20038;-62
2021/11/20 09:18:49;;;;;;;1999.90;999.90;;;;;;;14.52;72.15;101810.63;15599127;28;20144;-62
2021/11/20 09:26:24;;;;;;;1999.90;999.90;;;;;;;14.62;71.43;101807.47;15614163;28;20083;-63
2021/11/20 09:33:58;;;;;;;1999.90;999.90;;;;;;;14.84;70.92;101799.97;15607246;28;20037;-65
2021/11/20 09:41:53;;;;;;;1999.90;999.90;;;;;;;14.33;71.29;101796.09;15610845;28;20375;-65
2021/11/20 09:49:31;;;;;;;1999.90;999.90;;;;;;;14.12;71.95;101793.13;15608526;28;20033;-64
2021/11/20 09:57:22;;;;;;;1999.90;999.90;;;;;;;14.44;71.15;101788.97;15615521;28;20038;-65
2021/11/20 10:04:59;;;;;;;1999.90;999.90;;;;;;;14.71;70.00;101788.59;15653435;22;20040;-62
2021/11/20 10:12:39;;;;;;;1999.90;999.90;;;;;;;14.24;71.21;101786.84;15665912;28;20049;-60
2021/11/20 10:20:29;;;;;;;1999.90;999.90;;;;;;;14.35;71.22;101772.13;15672092;28;20413;-60
2021/11/20 10:28:15;;;;;;;1999.90;999.90;;;;;;;14.27;71.22;101761.72;15673715;28;20060;-60
2021/11/20 10:35:53;;;;;;;1999.90;999.90;;;;;;;14.09;71.44;101762.94;15673144;28;20080;-60
2021/11/20 10:43:31;;;;;;;1999.90;999.90;;;;;;;14.09;71.27;101746.91;15673124;28;20535;-62
2021/11/20 10:51:30;;;;;;;1999.90;999.90;;;;;;;14.01;72.02;101747.75;15672481;28;20045;-62
2021/11/20 10:59:20;;;;;;;1999.90;999.90;;;;;;;14.14;71.47;101731.88;15671185;28;20041;-61
2021/11/20 11:07:00;;;;;;;1999.90;999.90;;;;;;;13.98;71.89;101725.16;15671930;28;20561;-62
2021/11/20 11:15:11;;;;;;;1999.90;999.90;;;;;;;14.09;71.81;101713.25;15671640;28;20480;-60
2021/11/20 11:22:56;;;;;;;1999.90;999.90;;;;;;;14.15;71.43;101699.84;15670892;28;20060;-61
2021/11/20 11:30:34;;;;;;;1999.90;999.90;;;;;;;14.28;70.78;101684.81;15666060;28;20103;-62
2021/11/20 11:38:23;;;;;;;1999.90;999.90;;;;;;;14.16;71.05;101651.78;15661601;28;20441;-61
2021/11/20 11:46:18;;;;;;;1999.90;999.90;;;;;;;14.17;71.25;101661.03;15667218;28;20041;-62
2021/11/20 11:54:05;;;;;;;1999.90;999.90;;;;;;;14.28;70.77;101647.47;15681128;28;20498;-62
2021/11/20 12:02:03;;;;;;;1999.90;999.90;;;;;;;14.33;70.32;101634.06;15667522;28;20112;-64
2021/11/20 12:09:45;;;;;;;1999.90;999.90;;;;;;;14.37;69.64;101622.97;15680542;28;20099;-59
2021/11/20 12:17:54;;;;;;;1999.90;999.90;;;;;;;14.53;69.48;101606.44;15686012;28;20049;-59
2021/11/20 12:25:43;;;;;;;1999.90;999.90;;;;;;;14.37;69.45;101592.09;15687353;28;20040;-63
2021/11/20 12:33:47;;;;;;;1999.90;999.90;;;;;;;14.57;69.08;101582.94;15684886;28;20517;-60
2021/11/20 12:41:43;;;;;;;1999.90;999.90;;;;;;;14.59;68.44;101574.16;15695358;28;20037;-61
2021/11/20 12:49:36;;;;;;;1999.90;999.90;;;;;;;14.44;68.95;101555.88;15685066;28;20507;-61
2021/11/20 12:57:17;;;;;;;1999.90;999.90;;;;;;;14.17;69.70;101543.13;15699763;28;20045;-60
2021/11/20 13:04:53;;;;;;;1999.90;999.90;;;;;;;14.34;69.30;101526.22;15678501;28;20071;-61
2021/11/20 13:12:30;;;;;;;1999.90;999.90;;;;;;;14.39;69.03;101502.75;15679653;28;20056;-61
2021/11/20 13:20:19;;;;;;;1999.90;999.90;;;;;;;14.54;68.34;101492.94;15677146;28;20048;-63
2021/11/20 13:27:58;;;;;;;1999.90;999.90;;;;;;;14.33;69.05;101482.47;15668147;28;20041;-61
2021/11/20 13:35:33;;;;;;;1999.90;999.90;;;;;;;14.07;69.30;101482.63;15635263;28;20555;-60
2021/11/20 13:43:15;;;;;;;1999.90;999.90;;;;;;;14.15;68.63;101478.91;15675640;28;20041;-61
2021/11/20 13:50:48;;;;;;;1999.90;999.90;;;;;;;13.84;69.49;101470.81;15664722;28;20124;-61
2021/11/20 13:58:24;;;;;;;;;;;;;;;13.98;68.93;101464.19;15675892;28;20162;-60
2021/11/20 14:05:57;;;;;;;1999.90;999.90;;;;;;;13.95;68.86;101446.03;15674723;28;19928;-58
2021/11/20 14:13:34;;;;;;;1999.90;999.90;;;;;;;13.90;69.18;101437.00;15673473;28;20157;-61
2021/11/20 14:21:07;;;;;;;1999.90;999.90;;;;;;;13.90;68.93;101432.19;15673642;28;20048;-62
2021/11/20 14:28:43;;;;;;;1999.90;999.90;;;;;;;13.69;69.23;101428.50;15671434;28;20052;-61
2021/11/20 14:36:16;;;;;;;1999.90;999.90;;;;;;;13.87;68.64;101421.66;15649764;28;20056;-63
2021/11/20 14:44:00;;;;;;;1999.90;999.90;;;;;;;13.72;69.19;101417.44;15680738;28;20091;-65
2021/11/20 14:51:38;;;;;;;1999.90;999.90;;;;;;;13.59;69.09;101412.88;15678738;28;20041;-64
2021/11/20 14:59:13;;;;;;;1999.90;999.90;;;;;;;13.64;68.81;101401.47;15699385;28;20041;-63
2021/11/20 15:06:50;;;;;;;1999.90;999.90;;;;;;;13.62;68.57;101391.75;15683771;28;20068;-64
2021/11/20 15:14:25;;;;;;;1999.90;999.90;;;;;;;13.64;68.39;101378.22;15696525;28;20053;-64
2021/11/20 15:21:59;;;;;;;1999.90;999.90;;;;;;;13.61;68.54;101365.69;15682822;28;20133;-62
2021/11/20 15:29:34;;;;;;;1999.90;999.90;;;;;;;13.43;68.76;101370.56;15698697;28;20597;-55
2021/11/20 15:37:07;;;;;;;1999.90;999.90;;;;;;;13.34;68.96;101363.34;15712846;28;20033;-61
2021/11/20 15:44:42;;;;;;;1999.90;999.90;;;;;;;13.31;69.16;101355.59;15680711;28;20099;-61
2021/11/20 15:52:15;;;;;;;1999.90;999.90;;;;;;;13.67;67.58;101357.91;15658838;28;20046;-61
2021/11/20 15:59:49;;;;;;;1999.90;999.90;;;;;;;13.66;67.27;101348.69;15647499;28;20125;-62
2021/11/20 16:07:22;;;;;;;1999.90;999.90;;;;;;;13.56;67.59;101337.84;15743502;22;20408;-63
2021/11/20 16:14:57;;;;;;;1999.90;999.90;;;;;;;13.60;66.66;101344.41;15729006;28;20110;-64
2021/11/20 16:22:30;;;;;;;1999.90;999.90;;;;;;;13.69;66.23;101336.78;15677741;28;20147;-63
2021/11/20 16:30:07;;;;;;;1999.90;999.90;;;;;;;13.53;66.19;101322.50;15682748;28;20448;-63
2021/11/20 16:37:40;;;;;;;1999.90;999.90;;;;;;;13.52;66.03;101314.44;15669197;28;20041;-64
2021/11/20 16:45:20;;;;;;;1999.90;999.90;;;;;;;13.66;64.95;101306.63;15658285;28;20405;-62
2021/11/20 16:52:53;;;;;;;1999.90;999.90;;;;;;;13.44;64.98;101306.88;15675712;28;20043;-66
2021/11/20 17:00:28;;;;;;;1999.90;999.90;;;;;;;13.56;64.61;101304.22;15679799;28;20080;-65
2021/11/20 17:08:01;;;;;;;1999.90;999.90;;;;;;;13.55;63.92;101288.53;15653049;28;20406;-64
2021/11/20 17:15:35;;;;;;;1999.90;999.90;;;;;;;13.38;63.98;101277.44;15678316;28;20083;-66
2021/11/20 17:23:08;;;;;;;1999.90;999.90;;;;;;;12.98;63.61;101267.38;15629100;28;20061;-66
2021/11/20 17:30:42;;;;;;;1999.90;999.90;;;;;;;13.37;62.53;101254.19;15674192;28;20045;-65
2021/11/20 17:38:16;;;;;;;1999.90;999.90;;;;;;;13.26;61.73;101245.34;15626808;28;20505;-65
2021/11/20 17:45:50;;;;;;;1999.90;999.90;;;;;;;13.28;62.25;101250.59;15643921;28;20048;-65
2021/11/20 17:53:23;;;;;;;1999.90;999.90;;;;;;;13.16;62.51;101237.28;15645357;28;20049;-66
2021/11/20 18:00:59;;;;;;;1999.90;999.90;;;;;;;13.15;62.69;101248.84;15617408;28;20100;-65
2021/11/20 18:08:32;;;;;;;1999.90;999.90;;;;;;;13.13;62.59;101232.38;15653149;28;20037;-64
2021/11/20 18:16:06;;;;;;;1999.90;999.90;;;;;;;13.05;62.43;101229.59;15644563;28;20044;-63
2021/11/20 18:23:41;;;;;;;1999.90;999.90;;;;;;;12.97;62.69;101218.09;15635432;28;20049;-64
2021/11/20 18:31:16;;;;;;;1999.90;999.90;;;;;;;13.03;62.85;101213.13;15647529;28;20049;-65
2021/11/20 18:38:49;;;;;;;1999.90;999.90;;;;;;;12.82;63.08;101210.28;15656417;28;20497;-65
2021/11/20 18:46:26;;;;;;;1999.90;999.90;;;;;;;12.92;63.00;101207.09;15670049;28;20048;-65
2021/11/20 18:53:59;;;;;;;1999.90;999.90;;;;;;;12.80;63.52;101189.34;15661067;28;20103;-66
2021/11/20 19:01:33;;;;;;;1999.90;999.90;;;;;;;12.84;63.59;101193.13;15660213;28;20053;-64
2021/11/20 19:09:07;;;;;;;1999.90;999.90;;;;;;;12.62;64.20;101172.63;15657394;28;20049;-65
2021/11/20 19:16:42;;;;;;;1999.90;999.90;;;;;;;13.00;63.18;101158.59;15659271;28;20051;-63
2021/11/20 19:24:15;;;;;;;1999.90;999.90;;;;;;;12.75;63.86;101155.94;15659782;28;20077;-64
2021/11/20 19:31:50;;;;;;;1999.90;999.90;;;;;;;12.99;63.48;101134.53;15666320;28;20033;-66
2021/11/20 19:39:23;;;;;;;1999.90;999.90;;;;;;;12.85;63.38;101121.94;15666774;28;20401;-64
2021/11/20 19:46:57;;;;;;;1999.90;999.90;;;;;;;12.85;63.82;101117.16;15670878;28;20041;-64
2021/11/20 19:54:31;;;;;;;1999.90;999.90;;;;;;;12.62;64.12;101111.03;15654299;28;20136;-63
2021/11/20 20:02:06;;;;;;;;;;;;;;;12.68;64.00;101092.88;15672325;28;20045;-62
2021/11/20 20:09:39;;;;;;;1999.90;999.90;;;;;;;12.81;63.63;101085.38;15675711;28;20261;-62
2021/11/20 20:17:13;;;;;;;1999.90;999.90;;;;;;;12.90;63.54;101074.94;15662189;28;20063;-63
2021/11/20 20:24:48;;;;;;;1999.90;999.90;;;;;;;12.50;64.44;101063.34;15643887;28;20041;-67
2021/11/20 20:32:22;;;;;;;;;;;;;;;12.94;63.92;101049.91;15642001;28;20111;-63
2021/11/20 20:39:55;;;;;;;1999.90;999.90;;;;;;;12.38;65.88;101038.06;15659119;28;19967;-63
2021/11/20 20:47:30;;;;;;;1999.90;999.90;;;;;;;12.54;65.59;101027.94;15664195;28;20052;-67
2021/11/20 20:55:05;;;;;;;1999.90;999.90;;;;;;;12.51;65.79;101020.22;15656487;28;20052;-66
2021/11/20 21:02:41;;;;;;;1999.90;999.90;;;;;;;12.78;65.25;101009.66;15668442;28;20046;-62
2021/11/20 21:10:14;;;;;;;1999.90;999.90;;;;;;;12.42;66.25;101013.84;15662446;28;20394;-64
2021/11/20 21:17:49;;;;;;;1999.90;999.90;;;;;;;12.23;67.27;100994.69;15624880;28;20485;-60
2021/11/20 21:25:27;;;;;;;1999.90;999.90;;;;;;;12.20;67.27;100973.00;15671658;28;20121;-61
2021/11/20 21:33:03;;;;;;;1999.90;999.90;;;;;;;12.39;67.08;100959.34;15681230;28;20041;-61
2021/11/20 21:40:36;;;;;;;1999.90;999.90;;;;;;;12.37;67.35;100956.06;15663501;28;20045;-59
2021/11/20 21:48:10;;;;;;;1999.90;999.90;;;;;;;12.53;66.65;100950.72;15679665;28;20052;-61
2021/11/20 21:55:43;;;;;;;1999.90;999.90;;;;;;;12.38;67.23;100943.72;15667899;28;20103;-60
2021/11/20 22:03:17;;;;;;;1999.90;999.90;;;;;;;12.18;67.82;100922.13;15663330;22;20758;-60
2021/11/20 22:10:53;;;;;;;1999.90;999.90;;;;;;;12.49;66.91;100920.94;15687173;28;20600;-57
2021/11/20 22:18:28;;;;;;;1999.90;999.90;;;;;;;12.13;67.91;100906.38;15652343;28;20041;-59
2021/11/20 22:26:01;;;;;;;1999.90;999.90;;;;;;;12.38;67.11;100893.34;15609368;28;20049;-57
2021/11/20 22:33:38;;;;;;;1999.90;999.90;;;;;;;12.37;66.58;100882.50;15626966;28;20056;-59
2021/11/20 22:41:15;;;;;;;1999.90;999.90;;;;;;;12.20;66.91;100879.84;15633623;28;20110;-59
2021/11/20 22:48:52;;;;;;;1999.90;999.90;;;;;;;12.28;66.66;100867.75;15627363;28;20045;-59
2021/11/20 22:56:25;;;;;;;1999.90;999.90;;;;;;;12.39;66.38;100855.81;15633911;28;20148;-55
2021/11/20 23:04:02;;;;;;;1999.90;999.90;;;;;;;12.42;66.25;100857.94;15656355;28;20079;-56
2021/11/20 23:11:35;;;;;;;1999.90;999.90;;;;;;;12.50;65.92;100831.03;15624108;28;20450;-56
2021/11/20 23:19:10;;;;;;;1999.90;999.90;;;;;;;12.34;66.23;100833.66;15649648;28;20068;-57
2021/11/20 23:26:43;;;;;;;1999.90;999.90;;;;;;;12.60;65.81;100825.00;15639032;28;20088;-56
2021/11/20 23:34:17;;;;;;;1999.90;999.90;;;;;;;12.35;66.33;100806.47;15624476;28;20061;-56
2021/11/20 23:41:50;;;;;;;1999.90;999.90;;;;;;;12.14;67.04;100804.50;15631097;28;20049;-58
2021/11/20 23:49:25;;;;;;;1999.90;999.90;;;;;;;12.14;67.58;100793.31;15660478;28;20049;-58
2021/11/20 23:56:58;;;;;;;1999.90;999.90;;;;;;;11.93;67.86;100778.53;15660773;28;20902;-56
